createdAt,value
2022-07-31T00:01:09.857Z,94434.09
2022-07-31T00:03:39.421Z,94428.03
2022-07-31T00:06:09.390Z,94424.09
2022-07-31T00:08:38.349Z,94431.19
2022-07-31T00:11:07.231Z,94432.41
2022-07-31T00:13:57.363Z,94431.19
2022-07-31T00:16:24.806Z,94431.19
2022-07-31T00:18:53.895Z,94425.16
2022-07-31T00:21:22.786Z,94431.50
2022-07-31T00:23:51.729Z,94428.78
2022-07-31T00:26:20.537Z,94434.25
2022-07-31T00:28:49.365Z,94429.09
2022-07-31T00:31:19.067Z,94440.31
2022-07-31T00:33:47.859Z,94440.47
2022-07-31T00:36:17.046Z,94438.50
2022-07-31T00:38:45.945Z,94439.69
2022-07-31T00:41:16.061Z,94441.81
2022-07-31T00:43:44.855Z,94435.16
2022-07-31T00:46:14.263Z,94445.03
2022-07-31T00:48:43.764Z,94437.25
2022-07-31T00:51:12.951Z,94434.53
2022-07-31T00:53:43.881Z,94441.66
2022-07-31T00:56:12.621Z,94439.84
2022-07-31T00:58:41.361Z,94444.06
2022-07-31T01:01:10.622Z,94440.47
2022-07-31T01:03:40.040Z,94445.00
2022-07-31T01:06:09.832Z,94442.25
2022-07-31T01:08:38.584Z,94437.72
2022-07-31T01:11:34.795Z,94448.31
2022-07-31T01:14:08.936Z,94433.16
2022-07-31T01:16:45.685Z,94437.72
2022-07-31T01:19:52.698Z,94441.53
2022-07-31T01:22:46.881Z,94435.91
2022-07-31T01:25:46.801Z,94430.75
2022-07-31T01:28:41.803Z,94427.59
2022-07-31T01:31:26.852Z,94425.16
2022-07-31T01:34:06.482Z,94436.22
2022-07-31T01:36:40.514Z,94423.78
2022-07-31T01:39:09.564Z,94425.75
2022-07-31T01:41:42.657Z,94429.09
2022-07-31T01:44:14.584Z,94427.09
2022-07-31T01:46:47.338Z,94420.00
2022-07-31T01:49:19.676Z,94418.34
2022-07-31T01:51:48.884Z,94426.06
2022-07-31T01:54:21.103Z,94428.03
2022-07-31T01:56:50.945Z,94416.06
2022-07-31T01:59:22.905Z,94426.97
2022-07-31T02:02:14.652Z,94416.19
2022-07-31T02:04:47.796Z,94421.63
2022-07-31T02:07:18.915Z,94413.63
2022-07-31T02:09:50.945Z,94409.84
2022-07-31T02:12:34.201Z,94412.38
2022-07-31T02:15:24.978Z,94415.44
2022-07-31T02:17:55.271Z,94409.97
2022-07-31T02:20:26.326Z,94411.78
2022-07-31T02:22:58.193Z,94418.03
2022-07-31T02:25:28.148Z,94422.09
2022-07-31T02:28:00.587Z,94422.69
2022-07-31T02:30:39.145Z,94423.16
2022-07-31T02:33:17.391Z,94416.75
2022-07-31T02:35:50.257Z,94427.22
2022-07-31T02:38:23.485Z,94420.22
2022-07-31T02:41:05.483Z,94416.31
2022-07-31T02:43:36.139Z,94420.25
2022-07-31T02:46:15.151Z,94426.16
2022-07-31T02:48:45.300Z,94424.63
2022-07-31T02:51:15.948Z,94423.09
2022-07-31T02:53:44.896Z,94434.00
2022-07-31T02:56:14.639Z,94427.53
2022-07-31T02:58:44.679Z,94431.75
2022-07-31T03:01:23.273Z,94428.41
2022-07-31T03:03:53.205Z,94427.81
2022-07-31T03:06:22.042Z,94435.72
2022-07-31T03:08:50.890Z,94432.69
2022-07-31T03:11:22.946Z,94434.50
2022-07-31T03:13:54.823Z,94431.94
2022-07-31T03:16:24.391Z,94445.72
2022-07-31T03:18:54.706Z,94441.19
2022-07-31T03:21:24.318Z,94443.31
2022-07-31T03:23:53.375Z,94441.91
2022-07-31T03:26:24.556Z,94454.88
2022-07-31T03:28:54.593Z,94453.63
2022-07-31T03:31:23.445Z,94463.47
2022-07-31T03:33:52.248Z,94463.09
2022-07-31T03:36:21.362Z,94459.38
2022-07-31T03:38:50.716Z,94442.47
2022-07-31T03:41:34.377Z,94458.47
2022-07-31T03:44:03.749Z,94462.72
2022-07-31T03:46:33.272Z,94467.41
2022-07-31T03:49:02.436Z,94474.81
2022-07-31T03:51:32.672Z,94473.53
2022-07-31T03:54:01.712Z,94480.44
2022-07-31T03:56:53.389Z,94481.25
2022-07-31T03:59:26.464Z,94481.13
2022-07-31T04:01:58.974Z,94490.44
2022-07-31T04:04:46.360Z,94486.47
2022-07-31T04:07:16.210Z,94492.53
2022-07-31T04:09:45.977Z,94498.09
2022-07-31T04:12:17.403Z,94503.88
2022-07-31T04:14:46.460Z,94499.09
2022-07-31T04:17:15.561Z,94499.53
2022-07-31T04:19:44.435Z,94502.63
2022-07-31T04:22:13.286Z,94502.47
2022-07-31T04:24:42.139Z,94503.22
2022-07-31T04:27:48.585Z,94501.09
2022-07-31T04:30:19.090Z,94502.59
2022-07-31T04:32:49.117Z,94506.25
2022-07-31T04:35:23.070Z,94509.25
2022-07-31T04:37:52.081Z,94514.41
2022-07-31T04:40:23.029Z,94508.88
2022-07-31T04:42:51.807Z,94514.97
2022-07-31T04:45:20.590Z,94517.81
2022-07-31T04:47:49.608Z,94520.38
2022-07-31T04:50:19.234Z,94520.38
2022-07-31T04:52:57.952Z,94521.84
2022-07-31T04:55:29.790Z,94524.06
2022-07-31T04:57:58.733Z,94526.03
2022-07-31T05:00:28.312Z,94517.94
2022-07-31T05:02:57.311Z,94517.25
2022-07-31T05:05:26.170Z,94530.16
2022-07-31T05:07:55.079Z,94526.88
2022-07-31T05:10:46.759Z,94530.44
2022-07-31T05:13:16.657Z,94531.84
2022-07-31T05:15:45.547Z,94530.66
2022-07-31T05:18:14.357Z,94531.31
2022-07-31T05:20:43.136Z,94539.00
2022-07-31T05:23:27.294Z,94539.41
2022-07-31T05:26:06.367Z,94539.25
2022-07-31T05:28:35.259Z,94539.44
2022-07-31T05:31:04.603Z,94541.91
2022-07-31T05:33:34.318Z,94543.34
2022-07-31T05:36:04.479Z,94543.88
2022-07-31T05:38:33.644Z,94552.19
2022-07-31T05:41:22.919Z,94549.47
2022-07-31T05:44:01.055Z,94547.28
2022-07-31T05:46:35.928Z,94555.22
2022-07-31T05:49:05.076Z,94565.00
2022-07-31T05:51:34.426Z,94562.09
2022-07-31T05:54:03.545Z,94566.66
2022-07-31T05:56:50.591Z,94571.47
2022-07-31T05:59:24.586Z,94571.03
2022-07-31T06:01:54.937Z,94577.03
2022-07-31T06:04:25.582Z,94566.56
2022-07-31T06:06:54.601Z,94572.47
2022-07-31T06:09:23.455Z,94574.75
2022-07-31T06:11:52.687Z,94579.31
2022-07-31T06:14:21.554Z,94594.16
2022-07-31T06:17:10.290Z,94591.81
2022-07-31T06:19:40.395Z,94597.47
2022-07-31T06:22:09.631Z,94600.56
2022-07-31T06:24:40.597Z,94612.78
2022-07-31T06:27:16.251Z,94605.50
2022-07-31T06:30:01.339Z,94617.09
2022-07-31T06:32:32.740Z,94602.13
2022-07-31T06:35:03.251Z,94622.88
2022-07-31T06:37:36.117Z,94617.81
2022-07-31T06:40:05.462Z,94624.84
2022-07-31T06:42:40.087Z,94606.69
2022-07-31T06:45:09.752Z,94634.75
2022-07-31T06:47:56.872Z,94628.00
2022-07-31T06:50:37.081Z,94630.06
2022-07-31T06:53:19.636Z,94633.78
2022-07-31T06:55:48.570Z,94632.84
2022-07-31T06:58:17.432Z,94637.50
2022-07-31T07:00:47.840Z,94636.63
2022-07-31T07:03:16.978Z,94633.31
2022-07-31T07:05:45.932Z,94634.00
2022-07-31T07:08:16.399Z,94636.41
2022-07-31T07:10:47.748Z,94634.22
2022-07-31T07:13:45.158Z,94643.56
2022-07-31T07:16:15.348Z,94640.00
2022-07-31T07:18:44.841Z,94641.66
2022-07-31T07:21:14.318Z,94642.28
2022-07-31T07:23:43.921Z,94652.00
2022-07-31T07:26:27.647Z,94649.88
2022-07-31T07:28:56.550Z,94651.41
2022-07-31T07:31:25.774Z,94656.34
2022-07-31T07:33:56.242Z,94663.81
2022-07-31T07:36:26.200Z,94663.97
2022-07-31T07:38:59.035Z,94666.09
2022-07-31T07:41:28.193Z,94662.91
2022-07-31T07:43:57.295Z,94671.63
2022-07-31T07:46:28.761Z,94671.16
2022-07-31T07:49:03.575Z,94659.28
2022-07-31T07:51:59.057Z,94668.50
2022-07-31T07:54:52.407Z,94670.13
2022-07-31T07:57:40.553Z,94668.63
2022-07-31T08:00:42.518Z,94672.53
2022-07-31T08:03:48.353Z,94667.66
2022-07-31T08:06:00.608Z,94673.16
2022-07-31T08:08:29.715Z,94679.28
2022-07-31T08:11:36.877Z,94675.06
2022-07-31T08:14:18.491Z,94676.91
2022-07-31T08:17:22.053Z,94677.19
2022-07-31T08:19:51.824Z,94676.16
2022-07-31T08:22:21.028Z,94682.06
2022-07-31T08:24:50.075Z,94683.78
2022-07-31T08:27:39.889Z,94683.22
2022-07-31T08:30:11.554Z,94693.81
2022-07-31T08:32:40.416Z,94695.13
2022-07-31T08:35:12.041Z,94694.63
2022-07-31T08:37:51.801Z,94703.50
2022-07-31T08:40:43.086Z,94702.88
2022-07-31T08:44:00.434Z,94703.09
2022-07-31T08:46:05.637Z,94705.25
2022-07-31T08:48:41.880Z,94702.88
2022-07-31T08:51:14.360Z,94697.88
2022-07-31T08:54:23.245Z,94699.88
2022-07-31T08:56:53.565Z,94709.47
2022-07-31T08:59:23.686Z,94685.34
2022-07-31T09:01:53.840Z,94713.94
2022-07-31T09:04:25.377Z,94707.03
2022-07-31T09:06:55.326Z,94713.34
2022-07-31T09:09:24.185Z,94708.88
2022-07-31T09:12:13.129Z,94707.03
2022-07-31T09:15:43.462Z,94717.59
2022-07-31T09:18:31.868Z,94724.53
2022-07-31T09:21:13.251Z,94728.50
2022-07-31T09:23:47.395Z,94711.84
2022-07-31T09:26:16.657Z,94713.50
2022-07-31T09:28:49.432Z,94695.06
2022-07-31T09:31:18.274Z,94714.78
2022-07-31T09:34:00.309Z,94717.25
2022-07-31T09:36:41.072Z,94716.91
2022-07-31T09:39:28.469Z,94722.72
2022-07-31T09:42:45.615Z,94714.66
2022-07-31T09:45:26.238Z,94725.78
2022-07-31T09:48:16.192Z,94729.50
2022-07-31T09:50:56.556Z,94722.91
2022-07-31T09:53:26.932Z,94728.31
2022-07-31T09:56:16.708Z,94737.88
2022-07-31T09:58:46.733Z,94717.50
2022-07-31T10:01:17.289Z,94740.06
2022-07-31T10:03:51.038Z,94745.25
2022-07-31T10:06:21.442Z,94739.66
2022-07-31T10:08:51.189Z,94731.44
2022-07-31T10:11:41.203Z,94740.72
2022-07-31T10:14:20.262Z,94756.59
2022-07-31T10:16:51.657Z,94764.19
2022-07-31T10:19:50.669Z,94758.78
2022-07-31T10:22:32.583Z,94766.75
2022-07-31T10:25:02.849Z,94772.66
2022-07-31T10:27:33.766Z,94763.91
2022-07-31T10:30:11.870Z,94775.41
2022-07-31T10:32:45.426Z,94769.06
2022-07-31T10:35:43.949Z,94770.00
2022-07-31T10:38:52.555Z,94759.97
2022-07-31T10:41:49.160Z,94762.53
2022-07-31T10:44:35.498Z,94756.16
2022-07-31T10:47:27.803Z,94763.41
2022-07-31T10:50:25.429Z,94759.34
2022-07-31T10:53:20.630Z,94767.53
2022-07-31T10:56:14.440Z,94762.41
2022-07-31T10:58:59.679Z,94762.53
2022-07-31T11:01:58.286Z,94763.47
2022-07-31T11:04:50.429Z,94761.94
2022-07-31T11:07:48.864Z,94754.94
2022-07-31T11:10:38.250Z,94766.22
2022-07-31T11:13:51.090Z,94764.66
2022-07-31T11:16:56.380Z,94766.78
2022-07-31T11:19:45.494Z,94762.97
2022-07-31T11:22:31.576Z,94759.00
2022-07-31T11:25:01.321Z,94766.91
2022-07-31T11:27:35.574Z,94766.63
2022-07-31T11:30:12.561Z,94769.81
2022-07-31T11:32:50.300Z,94757.69
2022-07-31T11:35:27.804Z,94756.19
2022-07-31T11:37:58.471Z,94772.28
2022-07-31T11:40:29.038Z,94760.91
2022-07-31T11:45:53.332Z,94773.50
2022-07-31T11:48:27.528Z,94782.34
2022-07-31T11:50:56.957Z,94781.91
2022-07-31T11:53:26.385Z,94780.94
2022-07-31T11:55:59.911Z,94791.59
2022-07-31T11:58:30.399Z,94784.00
2022-07-31T12:01:01.577Z,94774.44
2022-07-31T12:03:37.201Z,94777.44
2022-07-31T12:06:08.445Z,94777.03
2022-07-31T12:08:40.444Z,94775.94
2022-07-31T12:11:11.366Z,94772.63
2022-07-31T12:13:45.524Z,94791.28
2022-07-31T12:16:14.520Z,94788.22
2022-07-31T12:18:54.280Z,94790.69
2022-07-31T12:21:34.840Z,94792.81
2022-07-31T12:24:12.069Z,94794.47
2022-07-31T12:26:45.057Z,94791.72
2022-07-31T12:29:14.129Z,94796.56
2022-07-31T12:31:54.258Z,94791.25
2022-07-31T12:34:34.486Z,94810.38
2022-07-31T12:37:10.115Z,94807.94
2022-07-31T12:39:59.289Z,94812.22
2022-07-31T12:42:40.823Z,94808.25
2022-07-31T12:45:19.185Z,94812.22
2022-07-31T12:47:54.006Z,94813.28
2022-07-31T12:50:24.323Z,94803.56
2022-07-31T12:52:54.222Z,94793.34
2022-07-31T12:55:23.221Z,94821.94
2022-07-31T12:57:52.502Z,94825.88
2022-07-31T13:00:24.557Z,94835.00
2022-07-31T13:02:55.608Z,94836.81
2022-07-31T13:05:26.248Z,94839.09
2022-07-31T13:07:55.891Z,94810.97
2022-07-31T13:10:30.893Z,94844.28
2022-07-31T13:13:01.574Z,94840.47
2022-07-31T13:15:30.397Z,94838.66
2022-07-31T13:18:02.468Z,94834.72
2022-07-31T13:20:31.938Z,94836.38
2022-07-31T13:23:01.816Z,94844.56
2022-07-31T13:25:33.463Z,94830.59
2022-07-31T13:28:02.326Z,94845.19
2022-07-31T13:30:31.146Z,94845.19
2022-07-31T13:32:59.976Z,94826.94
2022-07-31T13:35:29.310Z,94845.66
2022-07-31T13:37:58.453Z,94837.44
2022-07-31T13:40:46.319Z,94811.44
2022-07-31T13:43:15.924Z,94839.25
2022-07-31T13:45:44.948Z,94833.16
2022-07-31T13:48:13.841Z,94837.41
2022-07-31T13:50:42.766Z,94836.78
2022-07-31T13:53:11.990Z,94833.56
2022-07-31T13:55:40.767Z,94828.38
2022-07-31T13:58:09.706Z,94837.94
2022-07-31T14:00:39.517Z,94839.78
2022-07-31T14:03:08.514Z,94833.69
2022-07-31T14:05:40.142Z,94829.44
2022-07-31T14:08:33.384Z,94845.97
2022-07-31T14:10:58.758Z,94857.84
2022-07-31T14:13:28.166Z,94861.94
2022-07-31T14:15:57.415Z,94865.00
2022-07-31T14:18:26.366Z,94859.97
2022-07-31T14:20:55.234Z,94859.34
2022-07-31T14:23:27.813Z,94867.53
2022-07-31T14:26:05.720Z,94868.91
2022-07-31T14:28:34.701Z,94870.09
2022-07-31T14:31:03.448Z,94880.00
2022-07-31T14:33:32.418Z,94877.59
2022-07-31T14:36:01.317Z,94883.22
2022-07-31T14:38:30.346Z,94879.75
2022-07-31T14:40:59.448Z,94882.47
2022-07-31T14:43:28.294Z,94880.47
2022-07-31T14:45:57.100Z,94890.81
2022-07-31T14:48:25.952Z,94890.03
2022-07-31T14:50:54.869Z,94885.28
2022-07-31T14:53:23.769Z,94887.41
2022-07-31T14:55:52.654Z,94884.06
2022-07-31T14:58:21.963Z,94885.25
2022-07-31T15:00:51.280Z,94889.63
2022-07-31T15:03:20.166Z,94899.34
2022-07-31T15:06:41.098Z,94909.53
2022-07-31T15:08:39.536Z,94901.47
2022-07-31T15:11:08.569Z,94904.03
2022-07-31T15:13:39.052Z,94912.09
2022-07-31T15:16:10.070Z,94907.50
2022-07-31T15:18:38.977Z,94912.31
2022-07-31T15:21:13.058Z,94905.34
2022-07-31T15:23:41.847Z,94909.47
2022-07-31T15:26:10.677Z,94902.28
2022-07-31T15:28:39.551Z,94891.06
2022-07-31T15:31:08.533Z,94901.22
2022-07-31T15:33:37.379Z,94909.28
2022-07-31T15:36:14.800Z,94903.19
2022-07-31T15:38:44.309Z,94912.13
2022-07-31T15:41:18.963Z,94915.75
2022-07-31T15:43:48.004Z,94913.94
2022-07-31T15:46:16.821Z,94908.78
2022-07-31T15:48:45.868Z,94913.59
2022-07-31T15:51:14.784Z,94912.84
2022-07-31T15:53:43.608Z,94922.53
2022-07-31T15:56:12.418Z,94919.63
2022-07-31T15:58:41.291Z,94916.41
2022-07-31T16:01:10.749Z,94925.81
2022-07-31T16:03:50.383Z,94921.66
2022-07-31T16:06:20.087Z,94936.53
2022-07-31T16:10:03.845Z,94938.63
2022-07-31T16:12:35.692Z,94945.28
2022-07-31T16:15:07.828Z,94933.84
2022-07-31T16:17:39.767Z,94931.56
2022-07-31T16:20:20.778Z,94941.72
2022-07-31T16:22:58.819Z,94947.19
2022-07-31T16:25:29.504Z,94945.78
2022-07-31T16:28:01.083Z,94939.22
2022-07-31T16:30:29.950Z,94938.94
2022-07-31T16:32:58.811Z,94943.94
2022-07-31T16:35:28.121Z,94944.06
2022-07-31T16:37:57.127Z,94954.66
2022-07-31T16:40:30.840Z,94948.88
2022-07-31T16:43:47.161Z,94946.13
2022-07-31T16:45:54.753Z,94958.91
2022-07-31T16:48:23.812Z,94958.13
2022-07-31T16:50:53.424Z,94957.84
2022-07-31T16:54:11.278Z,94955.22
2022-07-31T16:56:17.928Z,94963.09
2022-07-31T16:58:48.406Z,94953.50
2022-07-31T17:01:58.849Z,94957.75
2022-07-31T17:04:08.335Z,94966.81
2022-07-31T17:06:38.230Z,94952.53
2022-07-31T17:09:16.985Z,94951.53
2022-07-31T17:11:49.540Z,94951.09
2022-07-31T17:14:20.112Z,94955.78
2022-07-31T17:16:50.418Z,94956.84
2022-07-31T17:19:41.913Z,94951.53
2022-07-31T17:22:11.081Z,94950.75
2022-07-31T17:24:40.669Z,94952.41
2022-07-31T17:27:10.207Z,94946.31
2022-07-31T17:29:39.887Z,94944.91
2022-07-31T17:32:11.328Z,94945.34
2022-07-31T17:34:41.319Z,94945.59
2022-07-31T17:37:10.389Z,94955.41
2022-07-31T17:39:39.395Z,94945.78
2022-07-31T17:42:09.558Z,94950.47
2022-07-31T17:44:39.914Z,94956.38
2022-07-31T17:47:09.640Z,94950.28
2022-07-31T17:49:38.902Z,94965.75
2022-07-31T17:52:07.853Z,94945.63
2022-07-31T17:54:36.652Z,94967.38
2022-07-31T17:57:05.735Z,94961.84
2022-07-31T17:59:34.857Z,94958.31
2022-07-31T18:02:04.724Z,94972.53
2022-07-31T18:04:36.088Z,94968.16
2022-07-31T18:07:07.343Z,94965.09
2022-07-31T18:09:37.221Z,94966.19
2022-07-31T18:12:06.683Z,94963.16
2022-07-31T18:14:36.585Z,94960.88
2022-07-31T18:17:05.940Z,94965.22
2022-07-31T18:19:34.883Z,94968.78
2022-07-31T18:22:04.087Z,94960.41
2022-07-31T18:24:33.153Z,94961.41
2022-07-31T18:27:02.021Z,94946.91
2022-07-31T18:29:30.787Z,94963.59
2022-07-31T18:31:59.589Z,94973.06
2022-07-31T18:34:28.712Z,94967.41
2022-07-31T18:36:57.552Z,94970.47
2022-07-31T18:39:26.389Z,94963.94
2022-07-31T18:41:55.237Z,94971.34
2022-07-31T18:44:24.097Z,94964.47
2022-07-31T18:46:53.625Z,94962.94
2022-07-31T18:50:59.943Z,94966.56
2022-07-31T18:52:12.316Z,94967.88
2022-07-31T18:54:46.489Z,94961.78
2022-07-31T18:57:15.369Z,94952.16
2022-07-31T18:59:44.166Z,94952.28
2022-07-31T19:02:13.664Z,94950.53
2022-07-31T19:04:42.654Z,94958.38
2022-07-31T19:07:11.496Z,94961.75
2022-07-31T19:09:40.820Z,94954.31
2022-07-31T19:12:10.601Z,94962.50
2022-07-31T19:14:40.863Z,94959.78
2022-07-31T19:17:09.716Z,94963.94
2022-07-31T19:19:54.333Z,94971.56
2022-07-31T19:22:24.508Z,94972.88
2022-07-31T19:24:53.871Z,94972.44
2022-07-31T19:27:46.844Z,94980.47
2022-07-31T19:30:14.334Z,94972.75
2022-07-31T19:32:43.754Z,94978.66
2022-07-31T19:35:12.653Z,94975.34
2022-07-31T19:37:41.546Z,94954.88
2022-07-31T19:40:11.049Z,94968.28
2022-07-31T19:42:40.121Z,94976.25
2022-07-31T19:45:09.244Z,94977.66
2022-07-31T19:47:38.181Z,94976.75
2022-07-31T19:50:08.058Z,94985.59
2022-07-31T19:52:36.834Z,94983.53
2022-07-31T19:55:07.105Z,94989.63
2022-07-31T19:57:38.333Z,94997.28
2022-07-31T20:00:12.417Z,94995.97
2022-07-31T20:02:42.196Z,95000.75
2022-07-31T20:05:11.684Z,95001.06
2022-07-31T20:07:40.582Z,94992.44
2022-07-31T20:10:12.774Z,94997.03
2022-07-31T20:12:41.982Z,94992.44
2022-07-31T20:15:11.224Z,94992.31
2022-07-31T20:17:40.083Z,94986.41
2022-07-31T20:20:15.282Z,94987.94
2022-07-31T20:22:44.973Z,94993.53
2022-07-31T20:25:19.724Z,95006.72
2022-07-31T20:27:50.431Z,95010.75
2022-07-31T20:30:22.432Z,95015.78
2022-07-31T20:32:52.092Z,95010.56
2022-07-31T20:35:33.040Z,95019.94
2022-07-31T20:38:15.925Z,95015.38
2022-07-31T20:40:49.943Z,95007.19
2022-07-31T20:43:25.588Z,95016.78
2022-07-31T20:45:58.799Z,95014.69
2022-07-31T20:48:35.471Z,95015.91
2022-07-31T20:51:05.812Z,95014.38
2022-07-31T20:53:34.758Z,95019.84
2022-07-31T20:56:03.532Z,95024.94
2022-07-31T20:58:32.325Z,95026.19
2022-07-31T21:01:01.777Z,95027.69
2022-07-31T21:03:30.898Z,95026.94
2022-07-31T21:05:59.930Z,95033.91
2022-07-31T21:08:28.760Z,95041.22
2022-07-31T21:11:01.136Z,95032.13
2022-07-31T21:13:30.220Z,95033.56
2022-07-31T21:15:59.424Z,95036.28
2022-07-31T21:18:32.715Z,95038.59
2022-07-31T21:21:03.224Z,95039.03
2022-07-31T21:23:32.530Z,95033.66
2022-07-31T21:26:03.234Z,95037.03
2022-07-31T21:28:32.381Z,95022.31
2022-07-31T21:31:01.636Z,95027.66
2022-07-31T21:33:30.574Z,95030.28
2022-07-31T21:35:59.828Z,95029.06
2022-07-31T21:38:29.091Z,95027.22
2022-07-31T21:40:58.360Z,95023.22
2022-07-31T21:43:39.106Z,95028.47
2022-07-31T21:46:23.447Z,95040.91
2022-07-31T21:48:52.943Z,95039.81
2022-07-31T21:51:22.158Z,95038.03
2022-07-31T21:53:50.936Z,95042.31
2022-07-31T21:56:19.808Z,95035.66
2022-07-31T21:58:49.020Z,95045.88
2022-07-31T22:01:19.842Z,95046.84
2022-07-31T22:03:48.846Z,95052.63
2022-07-31T22:06:36.099Z,95046.06
2022-07-31T22:09:04.998Z,95057.63
2022-07-31T22:11:34.392Z,95064.19
2022-07-31T22:14:03.189Z,95069.34
2022-07-31T22:16:31.986Z,95068.88
2022-07-31T22:19:01.381Z,95066.81
2022-07-31T22:21:30.359Z,95068.84
2022-07-31T22:23:59.356Z,95059.81
2022-07-31T22:26:30.377Z,95069.38
2022-07-31T22:28:59.601Z,95076.22
2022-07-31T22:31:31.417Z,95087.50
2022-07-31T22:34:00.314Z,95084.75
2022-07-31T22:36:29.214Z,95084.88
2022-07-31T22:38:58.190Z,95084.31
2022-07-31T22:41:27.315Z,95089.53
2022-07-31T22:44:12.634Z,95090.06
2022-07-31T22:46:43.842Z,95089.81
2022-07-31T22:49:13.266Z,95088.16
2022-07-31T22:51:46.368Z,95088.72
2022-07-31T22:54:15.504Z,95098.81
2022-07-31T22:56:44.264Z,95093.53
2022-07-31T22:59:13.090Z,95090.25
2022-07-31T23:01:43.352Z,95091.25
2022-07-31T23:04:12.598Z,95068.47
2022-07-31T23:06:41.401Z,95079.41
2022-07-31T23:09:10.239Z,95074.28
2022-07-31T23:11:44.655Z,95066.88
2022-07-31T23:14:38.627Z,95064.09
2022-07-31T23:17:07.448Z,95070.75
2022-07-31T23:19:36.303Z,95081.13
2022-07-31T23:22:05.348Z,95082.78
2022-07-31T23:24:34.251Z,95075.78
2022-07-31T23:27:08.766Z,95071.38
2022-07-31T23:29:41.291Z,95069.41
2022-07-31T23:32:10.930Z,95075.03
2022-07-31T23:34:39.853Z,95079.31
2022-07-31T23:37:09.900Z,95066.50
2022-07-31T23:39:38.846Z,95063.47
2022-07-31T23:42:26.242Z,95049.34
2022-07-31T23:44:55.010Z,95060.16
2022-07-31T23:47:27.963Z,95059.69
2022-07-31T23:50:15.483Z,95080.09
2022-07-31T23:52:45.042Z,95090.00
2022-07-31T23:55:14.247Z,95093.81
2022-07-31T23:57:43.353Z,95097.47
